createdAt,value
2023-04-01T00:02:34.442Z,13.63
2023-04-01T00:05:37.510Z,12.73
2023-04-01T00:08:40.598Z,7.28
2023-04-01T00:11:43.606Z,7.28
2023-04-01T00:14:47.036Z,7.75
2023-04-01T00:17:49.796Z,7.55
2023-04-01T00:20:53.083Z,4.43
2023-04-01T00:23:56.090Z,5.17
2023-04-01T00:26:58.829Z,5.13
2023-04-01T00:30:02.117Z,3.72
2023-04-01T00:33:06.259Z,3.80
2023-04-01T00:36:16.054Z,3.47
2023-04-01T00:39:19.680Z,3.13
2023-04-01T00:42:22.421Z,4.60
2023-04-01T00:45:40.301Z,2.28
2023-04-01T00:48:47.805Z,3.40
2023-04-01T00:51:54.465Z,2.90
2023-04-01T00:55:02.130Z,2.00
2023-04-01T00:58:08.509Z,2.58
2023-04-01T01:01:11.556Z,3.05
2023-04-01T01:04:40.805Z,2.70
2023-04-01T01:08:27.152Z,2.58
2023-04-01T01:11:43.302Z,1.92
2023-04-01T01:14:55.750Z,2.90
2023-04-01T01:18:16.186Z,2.92
2023-04-01T01:21:50.988Z,2.97
2023-04-01T01:25:17.781Z,2.95
2023-04-01T01:28:39.007Z,2.40
2023-04-01T01:32:09.791Z,2.45
2023-04-01T01:35:32.180Z,2.65
2023-04-01T01:38:36.812Z,3.07
2023-04-01T01:41:43.518Z,2.65
2023-04-01T01:44:48.627Z,2.50
2023-04-01T01:47:52.454Z,2.28
2023-04-01T01:50:55.397Z,1.95
2023-04-01T01:53:57.967Z,1.95
2023-04-01T01:57:08.234Z,2.78
2023-04-01T02:00:16.157Z,2.27
2023-04-01T02:03:23.960Z,1.70
2023-04-01T02:06:31.499Z,1.35
2023-04-01T02:09:35.578Z,1.53
2023-04-01T02:12:39.419Z,0.90
2023-04-01T02:15:46.350Z,1.60
2023-04-01T02:18:54.200Z,2.05
2023-04-01T02:22:02.652Z,1.70
2023-04-01T02:25:18.696Z,1.02
2023-04-01T02:28:24.114Z,1.08
2023-04-01T02:31:26.931Z,0.37
2023-04-01T02:34:30.519Z,2.05
2023-04-01T02:37:34.362Z,1.95
2023-04-01T02:40:51.584Z,1.77
2023-04-01T02:43:54.677Z,2.25
2023-04-01T02:46:57.805Z,1.95
2023-04-01T02:50:01.131Z,2.20
2023-04-01T02:53:05.084Z,3.30
2023-04-01T02:56:07.979Z,8.90
2023-04-01T02:59:11.166Z,3.72
2023-04-01T03:02:14.178Z,3.53
2023-04-01T03:05:16.794Z,2.97
2023-04-01T03:08:19.435Z,0.80
2023-04-01T03:11:22.860Z,2.47
2023-04-01T03:14:25.689Z,3.95
2023-04-01T03:17:28.489Z,2.00
2023-04-01T03:20:31.148Z,1.85
2023-04-01T03:23:34.304Z,2.22
2023-04-01T03:26:36.759Z,2.35
2023-04-01T03:29:39.997Z,2.20
2023-04-01T03:32:43.156Z,1.57
2023-04-01T03:35:46.913Z,1.75
2023-04-01T03:38:49.706Z,2.13
2023-04-01T03:41:58.844Z,2.43
2023-04-01T03:45:01.729Z,2.30
2023-04-01T03:48:04.924Z,2.97
2023-04-01T03:51:08.817Z,2.67
2023-04-01T03:54:12.535Z,2.10
2023-04-01T03:57:15.410Z,2.50
2023-04-01T04:00:18.861Z,2.25
2023-04-01T04:03:25.639Z,2.10
2023-04-01T04:06:29.485Z,2.30
2023-04-01T04:09:35.864Z,2.10
2023-04-01T04:12:38.727Z,2.30
2023-04-01T04:15:41.399Z,2.47
